Arntfield, Canada
Current Conditions -  °F | °C
As of 1:00 PM on Monday 26 Jan 2015 (Local Time) from CYUY Reporting Station
Broken Clouds Broken Clouds  
Wind Chill:   Ceiling: 24000
Heat Index:   Visibility: 15mi
Dew Point: -6°   Wind: 2mph
Humidity: 66%   Direction: NA
Pressure: 30.09"   Gusts: NA
Location:  48.2°N, 79.25°W
Report Text: CYUY 261800Z VRB02KT 15SM BKN240 M16/M21 A3009 RMK CI6 SLP228
Loading
Personal Weather Stations






























Interactive Weather Map New forecast layout! Learn more

10-Day Weather Forecast

Advertisements
Track Severe Weather on mobile